createdAt,value
2019-02-14T00:00:48.891Z,10.53
2019-02-14T00:03:29.372Z,15.00
2019-02-14T00:06:10.140Z,10.93
2019-02-14T00:08:51.075Z,12.58
2019-02-14T00:11:32.297Z,10.90
2019-02-14T00:14:12.895Z,12.10
2019-02-14T00:16:53.733Z,13.10
2019-02-14T00:19:32.731Z,17.87
2019-02-14T00:22:20.575Z,13.62
2019-02-14T00:25:08.449Z,15.80
2019-02-14T00:27:56.298Z,17.10
2019-02-14T00:30:44.154Z,14.68
2019-02-14T00:33:24.544Z,12.25
2019-02-14T00:36:05.154Z,12.10
2019-02-14T00:38:45.635Z,12.82
2019-02-14T00:41:26.844Z,11.68
2019-02-14T00:44:07.428Z,10.70
2019-02-14T00:46:47.915Z,11.00
2019-02-14T00:49:28.442Z,15.10
2019-02-14T00:52:08.874Z,14.47
2019-02-14T00:54:49.459Z,9.93
2019-02-14T00:57:29.907Z,11.00
2019-02-14T01:00:10.498Z,10.38
2019-02-14T01:02:51.127Z,9.98
2019-02-14T01:05:33.830Z,13.43
2019-02-14T01:08:02.511Z,12.47
2019-02-14T01:10:31.039Z,13.38
2019-02-14T01:12:59.632Z,9.93
2019-02-14T01:15:29.369Z,10.85
2019-02-14T01:17:57.930Z,11.80
2019-02-14T01:20:26.502Z,8.88
2019-02-14T01:22:55.429Z,12.45
2019-02-14T01:25:24.214Z,11.22
2019-02-14T01:27:52.778Z,13.10
2019-02-14T01:30:21.355Z,11.83
2019-02-14T01:32:50.276Z,10.50
2019-02-14T01:35:18.827Z,12.50
2019-02-14T01:37:48.264Z,12.93
2019-02-14T01:40:17.158Z,10.60
2019-02-14T01:42:45.786Z,12.07
2019-02-14T01:45:14.628Z,11.20
2019-02-14T01:47:43.199Z,8.65
2019-02-14T01:50:11.793Z,12.05
2019-02-14T01:52:40.354Z,12.78
2019-02-14T01:55:09.273Z,11.95
2019-02-14T01:57:37.846Z,11.78
2019-02-14T02:00:10.002Z,10.10
2019-02-14T02:02:38.594Z,9.55
2019-02-14T02:05:07.511Z,11.22
2019-02-14T02:07:36.336Z,11.38
2019-02-14T02:10:05.487Z,12.85
2019-02-14T02:12:34.010Z,11.93
2019-02-14T02:15:03.163Z,12.07
2019-02-14T02:17:31.771Z,11.53
2019-02-14T02:20:00.576Z,13.62
2019-02-14T02:22:29.170Z,15.40
2019-02-14T02:24:58.143Z,11.45
2019-02-14T02:27:27.403Z,15.13
2019-02-14T02:29:56.234Z,10.85
2019-02-14T02:32:24.848Z,12.23
2019-02-14T02:34:53.707Z,10.18
2019-02-14T02:37:22.343Z,11.95
2019-02-14T02:39:50.903Z,10.68
2019-02-14T02:42:19.864Z,8.78
2019-02-14T02:44:48.384Z,6.80
2019-02-14T02:47:17.336Z,8.00
2019-02-14T02:49:45.850Z,13.15
2019-02-14T02:52:14.695Z,12.95
2019-02-14T02:54:43.506Z,7.03
2019-02-14T02:57:12.766Z,9.95
2019-02-14T02:59:41.566Z,10.00
2019-02-14T03:02:10.652Z,8.15
2019-02-14T03:04:39.463Z,10.72
2019-02-14T03:07:08.754Z,16.25
2019-02-14T03:09:37.283Z,9.45
2019-02-14T03:12:05.858Z,8.08
2019-02-14T03:14:34.693Z,8.68
2019-02-14T03:17:03.241Z,6.15
2019-02-14T03:19:32.066Z,9.68
2019-02-14T03:22:00.936Z,9.30
2019-02-14T03:24:30.158Z,6.40
2019-02-14T03:26:58.754Z,6.83
2019-02-14T03:29:27.618Z,8.60
2019-02-14T03:31:56.220Z,8.55
2019-02-14T03:34:24.806Z,7.50
2019-02-14T03:36:53.393Z,15.88
2019-02-14T03:39:22.291Z,7.55
2019-02-14T03:41:51.793Z,11.48
2019-02-14T03:44:20.683Z,9.83
2019-02-14T03:46:49.574Z,12.85
2019-02-14T03:49:18.157Z,8.43
2019-02-14T03:51:46.746Z,8.48
2019-02-14T03:54:15.442Z,8.23
2019-02-14T03:56:44.326Z,9.18
2019-02-14T03:59:13.212Z,9.68
2019-02-14T04:01:41.778Z,6.65
2019-02-14T04:04:10.362Z,8.53
2019-02-14T04:06:38.959Z,5.47
2019-02-14T04:09:08.397Z,6.55
2019-02-14T04:11:37.072Z,8.33
2019-02-14T04:14:05.999Z,8.93
2019-02-14T04:16:34.611Z,6.87
2019-02-14T04:19:03.201Z,11.12
2019-02-14T04:21:31.770Z,7.20
2019-02-14T04:24:00.374Z,10.05
2019-02-14T04:26:29.170Z,12.33
2019-02-14T04:28:57.745Z,14.10
2019-02-14T04:31:26.323Z,10.20
2019-02-14T04:33:55.219Z,8.48
2019-02-14T04:36:24.030Z,11.33
2019-02-14T04:38:52.920Z,9.88
2019-02-14T04:41:21.798Z,7.58
2019-02-14T04:43:50.367Z,7.55
2019-02-14T04:46:18.946Z,9.63
2019-02-14T04:48:47.541Z,11.50
2019-02-14T04:51:16.114Z,10.68
2019-02-14T04:53:44.710Z,9.75
2019-02-14T04:56:13.286Z,14.10
2019-02-14T04:58:42.195Z,10.63
2019-02-14T05:01:11.550Z,13.45
2019-02-14T05:03:40.173Z,8.40
2019-02-14T05:06:09.071Z,9.83
2019-02-14T05:08:37.963Z,9.10
2019-02-14T05:11:06.720Z,7.22
2019-02-14T05:13:35.375Z,9.50
2019-02-14T05:16:03.995Z,8.23
2019-02-14T05:18:32.910Z,7.87
2019-02-14T05:21:01.490Z,7.28
2019-02-14T05:23:30.387Z,9.83
2019-02-14T05:25:58.962Z,9.28
2019-02-14T05:28:27.862Z,8.00
2019-02-14T05:30:57.058Z,8.23
2019-02-14T05:33:25.642Z,8.68
2019-02-14T05:35:54.221Z,7.90
2019-02-14T05:38:23.120Z,9.05
2019-02-14T05:40:51.694Z,7.30
2019-02-14T05:43:20.262Z,8.55
2019-02-14T05:45:48.870Z,7.40
2019-02-14T05:48:17.442Z,9.48
2019-02-14T05:50:46.025Z,5.78
2019-02-14T05:53:14.612Z,7.25
2019-02-14T05:55:43.196Z,7.72
2019-02-14T05:58:11.774Z,8.20
2019-02-14T06:00:40.362Z,7.97
2019-02-14T06:03:08.939Z,11.57
2019-02-14T06:05:37.860Z,9.18
2019-02-14T06:08:06.755Z,10.03
2019-02-14T06:10:35.935Z,9.70
2019-02-14T06:13:04.530Z,6.37
2019-02-14T06:15:33.341Z,10.00
2019-02-14T06:18:01.976Z,10.65
2019-02-14T06:20:31.198Z,10.55
2019-02-14T06:22:59.762Z,13.70
2019-02-14T06:25:28.667Z,12.23
2019-02-14T06:27:57.242Z,12.40
2019-02-14T06:30:26.351Z,11.95
2019-02-14T06:32:55.546Z,13.15
2019-02-14T06:35:24.127Z,12.13
2019-02-14T06:37:53.399Z,12.13
2019-02-14T06:40:22.335Z,17.80
2019-02-14T06:42:50.902Z,20.90
2019-02-14T06:45:19.803Z,16.65
2019-02-14T06:47:48.387Z,12.45
2019-02-14T06:50:16.954Z,18.23
2019-02-14T06:52:45.875Z,17.37
2019-02-14T06:55:14.758Z,22.70
2019-02-14T06:57:43.330Z,20.88
2019-02-14T07:00:14.166Z,15.95
2019-02-14T07:02:43.019Z,22.27
2019-02-14T07:05:11.641Z,13.40
2019-02-14T07:07:41.242Z,16.45
2019-02-14T07:10:29.336Z,19.30
2019-02-14T07:13:17.192Z,14.15
2019-02-14T07:16:05.815Z,11.05
2019-02-14T07:18:53.679Z,18.20
2019-02-14T07:21:41.534Z,23.73
2019-02-14T07:24:29.736Z,19.52
2019-02-14T07:27:17.695Z,15.95
2019-02-14T07:30:07.091Z,13.80
2019-02-14T07:32:55.211Z,11.20
2019-02-14T07:35:43.067Z,13.10
2019-02-14T07:38:30.931Z,11.40
2019-02-14T07:41:19.008Z,16.93
2019-02-14T07:44:06.875Z,10.72
2019-02-14T07:46:54.982Z,13.90
2019-02-14T07:49:43.106Z,15.43
2019-02-14T07:52:31.238Z,18.25
2019-02-14T07:55:19.227Z,11.83
2019-02-14T07:58:08.961Z,16.23
2019-02-14T08:00:56.704Z,15.65
2019-02-14T08:03:44.595Z,13.90
2019-02-14T08:09:21.235Z,17.55
2019-02-14T08:12:09.091Z,17.48
2019-02-14T08:14:57.197Z,16.17
2019-02-14T08:20:37.240Z,14.58
2019-02-14T08:26:13.131Z,15.50
2019-02-14T08:31:53.847Z,14.47
2019-02-14T08:43:10.667Z,12.75
2019-02-14T08:45:51.726Z,11.45
2019-02-14T08:48:32.732Z,14.00
2019-02-14T08:51:12.987Z,16.57
2019-02-14T08:53:53.486Z,15.98
2019-02-14T08:56:33.975Z,15.48
2019-02-14T08:59:14.802Z,12.00
2019-02-14T09:01:57.499Z,17.10
2019-02-14T09:04:38.067Z,13.88
2019-02-14T09:07:19.139Z,15.85
2019-02-14T09:09:59.746Z,11.50
2019-02-14T09:12:40.736Z,13.22
2019-02-14T09:15:21.574Z,17.82
2019-02-14T09:18:02.090Z,13.25
2019-02-14T09:20:42.860Z,14.40
2019-02-14T09:23:23.791Z,11.88
2019-02-14T09:26:04.494Z,9.70
2019-02-14T09:28:45.167Z,14.95
2019-02-14T09:31:25.847Z,18.67
2019-02-14T09:34:06.523Z,18.48
2019-02-14T09:36:47.199Z,20.85
2019-02-14T09:39:27.751Z,20.85
2019-02-14T09:42:08.530Z,19.27
2019-02-14T09:44:49.575Z,20.50
2019-02-14T09:47:30.609Z,18.42
2019-02-14T09:50:11.231Z,19.92
2019-02-14T09:52:52.223Z,14.90
2019-02-14T09:55:33.604Z,23.35
2019-02-14T09:58:13.867Z,22.58
2019-02-14T10:00:54.722Z,22.98
2019-02-14T10:03:35.723Z,17.17
2019-02-14T10:09:00.649Z,24.35
2019-02-14T10:11:42.221Z,20.97
2019-02-14T10:14:23.063Z,25.17
2019-02-14T10:17:03.519Z,24.72
2019-02-14T10:19:44.456Z,27.13
2019-02-14T10:22:24.727Z,26.90
2019-02-14T10:25:05.464Z,19.92
2019-02-14T10:27:45.782Z,26.45
2019-02-14T10:30:26.678Z,25.82
2019-02-14T10:33:07.003Z,25.72
2019-02-14T10:35:47.858Z,30.57
2019-02-14T10:38:28.543Z,29.77
2019-02-14T10:41:09.622Z,22.35
2019-02-14T10:43:50.822Z,24.47
2019-02-14T10:46:31.542Z,23.35
2019-02-14T10:49:12.483Z,26.37
2019-02-14T10:51:53.088Z,20.55
2019-02-14T10:54:34.153Z,21.57
2019-02-14T10:57:14.743Z,22.55
2019-02-14T10:59:55.775Z,20.32
2019-02-14T11:02:36.823Z,20.95
2019-02-14T11:05:17.463Z,21.45
2019-02-14T11:07:58.623Z,19.67
2019-02-14T11:13:24.956Z,30.52
2019-02-14T11:16:06.026Z,20.37
2019-02-14T11:18:46.683Z,20.57
2019-02-14T11:21:27.511Z,19.48
2019-02-14T11:24:07.891Z,21.93
2019-02-14T11:26:48.319Z,17.90
2019-02-14T11:29:28.931Z,20.10
2019-02-14T11:32:09.310Z,26.93
2019-02-14T11:37:40.567Z,18.95
2019-02-14T11:43:09.217Z,18.02
2019-02-14T11:51:28.619Z,20.02
2019-02-14T11:54:12.800Z,19.65
2019-02-14T12:02:29.371Z,21.68
2019-02-14T12:13:28.914Z,17.37
2019-02-14T12:18:51.243Z,17.90
2019-02-14T12:24:14.451Z,22.20
2019-02-14T12:38:12.999Z,21.30
2019-02-14T12:40:53.551Z,20.08
2019-02-14T12:43:34.183Z,21.33
2019-02-14T12:46:14.637Z,24.37
2019-02-14T12:48:55.195Z,26.68
2019-02-14T12:51:35.814Z,23.30
2019-02-14T12:54:16.534Z,23.62
2019-02-14T12:56:57.096Z,24.82
2019-02-14T12:59:37.907Z,21.90
2019-02-14T13:02:18.543Z,21.23
2019-02-14T13:04:59.608Z,24.02
2019-02-14T13:07:40.565Z,20.45
2019-02-14T13:10:21.192Z,23.27
2019-02-14T13:12:50.094Z,25.30
2019-02-14T13:15:20.195Z,23.40
2019-02-14T13:17:48.824Z,21.10
2019-02-14T13:20:17.430Z,22.40
2019-02-14T13:22:46.323Z,24.07
2019-02-14T13:25:15.229Z,23.30
2019-02-14T13:27:44.205Z,22.55
2019-02-14T13:30:17.961Z,22.48
2019-02-14T13:32:46.906Z,21.97
2019-02-14T13:35:15.486Z,27.40
2019-02-14T13:37:44.059Z,25.70
2019-02-14T13:40:12.927Z,24.75
2019-02-14T13:42:41.526Z,23.07
2019-02-14T13:45:12.001Z,23.12
2019-02-14T13:47:40.674Z,24.02
2019-02-14T13:50:10.186Z,28.90
2019-02-14T13:52:39.056Z,25.43
2019-02-14T13:55:07.778Z,26.62
2019-02-14T13:57:36.410Z,27.07
2019-02-14T14:00:07.479Z,25.12
2019-02-14T14:02:36.146Z,28.47
2019-02-14T14:05:04.837Z,26.10
2019-02-14T14:07:40.183Z,23.75
2019-02-14T14:10:04.502Z,26.05
2019-02-14T14:12:33.455Z,25.35
2019-02-14T14:15:02.042Z,24.75
2019-02-14T14:17:31.238Z,17.77
2019-02-14T14:19:59.810Z,20.85
2019-02-14T14:22:28.691Z,26.85
2019-02-14T14:24:57.878Z,21.97
2019-02-14T14:27:26.967Z,22.55
2019-02-14T14:29:55.576Z,26.10
2019-02-14T14:32:24.152Z,28.57
2019-02-14T14:34:52.800Z,28.02
2019-02-14T14:37:21.418Z,26.07
2019-02-14T14:39:50.023Z,25.97
2019-02-14T14:42:36.674Z,31.80
2019-02-14T14:45:07.870Z,28.85
2019-02-14T14:47:36.691Z,25.80
2019-02-14T14:50:05.534Z,32.42
2019-02-14T14:52:34.450Z,26.80
2019-02-14T14:55:03.026Z,25.15
2019-02-14T14:57:31.602Z,30.12
2019-02-14T15:00:00.354Z,25.88
2019-02-14T15:02:28.978Z,29.00
2019-02-14T15:04:58.801Z,25.30
2019-02-14T15:07:27.381Z,29.72
2019-02-14T15:09:57.825Z,23.12
2019-02-14T15:12:26.375Z,22.35
2019-02-14T15:14:55.282Z,30.20
2019-02-14T15:17:23.988Z,23.02
2019-02-14T15:19:52.539Z,26.17
2019-02-14T15:22:21.512Z,30.80
2019-02-14T15:24:50.439Z,22.48
2019-02-14T15:27:19.446Z,24.43
2019-02-14T15:29:48.382Z,25.50
2019-02-14T15:32:17.025Z,25.95
2019-02-14T15:34:45.933Z,36.42
2019-02-14T15:37:17.847Z,26.33
2019-02-14T15:39:46.150Z,24.70
2019-02-14T15:42:14.743Z,32.38
2019-02-14T15:44:43.312Z,26.60
2019-02-14T15:47:11.890Z,27.35
2019-02-14T15:49:40.465Z,23.62
2019-02-14T15:52:09.358Z,20.92
2019-02-14T15:54:38.460Z,22.87
2019-02-14T15:57:07.355Z,25.20
2019-02-14T15:59:35.923Z,26.73
2019-02-14T16:02:06.240Z,26.48
2019-02-14T16:04:35.171Z,23.50
2019-02-14T16:07:03.851Z,26.90
2019-02-14T16:09:32.411Z,23.90
2019-02-14T16:12:00.998Z,22.90
2019-02-14T16:14:29.543Z,24.27
2019-02-14T16:16:58.418Z,24.35
2019-02-14T16:19:27.477Z,31.77
2019-02-14T16:21:56.185Z,25.35
2019-02-14T16:24:25.163Z,23.35
2019-02-14T16:26:54.042Z,21.75
2019-02-14T16:29:24.574Z,30.17
2019-02-14T16:31:53.271Z,22.50
2019-02-14T16:34:21.838Z,22.20
2019-02-14T16:36:50.430Z,23.42
2019-02-14T16:39:20.621Z,22.60
2019-02-14T16:41:49.656Z,23.07
2019-02-14T16:44:18.211Z,22.55
2019-02-14T16:46:47.122Z,29.37
2019-02-14T16:49:15.678Z,20.00
2019-02-14T16:51:44.270Z,22.02
2019-02-14T16:54:13.174Z,24.77
2019-02-14T16:56:41.746Z,24.63
2019-02-14T16:59:10.458Z,21.37
2019-02-14T17:01:39.025Z,21.62
2019-02-14T17:04:07.614Z,23.35
2019-02-14T17:06:36.522Z,22.65
2019-02-14T17:09:05.872Z,26.42
2019-02-14T17:11:34.487Z,25.25
2019-02-14T17:14:03.425Z,23.25
2019-02-14T17:16:32.069Z,20.50
2019-02-14T17:19:00.690Z,21.07
2019-02-14T17:21:29.798Z,21.20
2019-02-14T17:23:58.430Z,25.25
2019-02-14T17:26:27.242Z,23.55
2019-02-14T17:28:56.117Z,20.00
2019-02-14T17:31:24.691Z,19.37
2019-02-14T17:33:53.623Z,22.42
2019-02-14T17:36:22.367Z,28.42
2019-02-14T17:38:51.277Z,23.38
2019-02-14T17:41:19.878Z,25.45
2019-02-14T17:43:48.775Z,23.45
2019-02-14T17:46:17.414Z,26.48
2019-02-14T17:48:46.044Z,32.30
2019-02-14T17:51:14.786Z,28.32
2019-02-14T17:53:43.695Z,26.90
2019-02-14T17:56:12.281Z,30.23
2019-02-14T17:58:40.855Z,28.87
2019-02-14T18:01:09.807Z,35.35
2019-02-14T18:03:38.883Z,29.30
2019-02-14T18:06:08.648Z,28.02
2019-02-14T18:08:37.388Z,30.55
2019-02-14T18:11:06.046Z,23.38
2019-02-14T18:13:34.658Z,24.67
2019-02-14T18:16:03.250Z,21.85
2019-02-14T18:18:31.918Z,25.68
2019-02-14T18:21:01.210Z,26.02
2019-02-14T18:23:30.386Z,27.80
2019-02-14T18:25:59.365Z,21.07
2019-02-14T18:28:27.957Z,23.20
2019-02-14T18:30:57.162Z,19.32
2019-02-14T18:33:26.179Z,18.32
2019-02-14T18:35:55.137Z,22.20
2019-02-14T18:38:23.734Z,25.92
2019-02-14T18:40:52.638Z,24.45
2019-02-14T18:43:21.514Z,22.90
2019-02-14T18:45:50.451Z,24.52
2019-02-14T18:48:19.508Z,25.77
2019-02-14T18:50:48.083Z,30.02
2019-02-14T18:53:16.691Z,26.35
2019-02-14T18:55:45.250Z,35.38
2019-02-14T18:58:13.829Z,28.50
2019-02-14T19:00:43.075Z,33.28
2019-02-14T19:03:12.438Z,33.58
2019-02-14T19:05:41.358Z,29.92
2019-02-14T19:08:09.931Z,26.50
2019-02-14T19:10:40.643Z,22.48
2019-02-14T19:13:09.279Z,27.22
2019-02-14T19:15:38.160Z,24.57
2019-02-14T19:18:06.722Z,24.02
2019-02-14T19:20:35.636Z,27.20
2019-02-14T19:23:04.266Z,22.02
2019-02-14T19:25:33.207Z,24.60
2019-02-14T19:28:02.203Z,29.70
2019-02-14T19:30:30.879Z,34.33
2019-02-14T19:32:59.550Z,31.90
2019-02-14T19:35:28.172Z,34.65
2019-02-14T19:37:56.859Z,31.93
2019-02-14T19:40:25.594Z,34.38
2019-02-14T19:42:54.227Z,24.52
2019-02-14T19:45:22.945Z,23.27
2019-02-14T19:47:51.544Z,26.10
2019-02-14T19:50:20.456Z,21.33
2019-02-14T19:52:49.010Z,27.65
2019-02-14T19:55:17.643Z,27.22
2019-02-14T19:57:46.484Z,25.25
2019-02-14T20:00:34.646Z,29.20
2019-02-14T20:03:22.798Z,25.92
2019-02-14T20:11:59.747Z,27.70
2019-02-14T20:14:47.827Z,22.30
2019-02-14T20:17:28.458Z,23.27
2019-02-14T20:20:08.988Z,17.92
2019-02-14T20:22:49.629Z,20.45
2019-02-14T20:25:30.418Z,24.07
2019-02-14T20:28:10.739Z,25.30
2019-02-14T20:30:51.447Z,27.60
2019-02-14T20:33:32.263Z,21.93
2019-02-14T20:36:13.281Z,21.05
2019-02-14T20:38:53.583Z,18.40
2019-02-14T20:41:34.084Z,18.70
2019-02-14T20:44:15.171Z,20.32
2019-02-14T20:46:56.372Z,22.30
2019-02-14T20:49:37.459Z,22.35
2019-02-14T20:52:17.795Z,24.50
2019-02-14T20:54:58.564Z,21.95
2019-02-14T20:57:39.714Z,18.90
2019-02-14T21:03:27.411Z,22.52
2019-02-14T21:06:07.899Z,20.90
2019-02-14T21:08:48.746Z,23.87
2019-02-14T21:11:29.030Z,23.35
2019-02-14T21:14:09.583Z,20.25
2019-02-14T21:16:50.499Z,19.67
2019-02-14T21:19:31.502Z,21.10
2019-02-14T21:24:57.199Z,23.83
2019-02-14T21:27:38.391Z,19.05
2019-02-14T21:30:18.758Z,20.72
2019-02-14T21:32:59.479Z,25.20
2019-02-14T21:35:40.918Z,21.90
2019-02-14T21:38:22.331Z,22.45
2019-02-14T21:46:31.067Z,21.07
2019-02-14T21:49:11.511Z,20.30
2019-02-14T21:54:38.054Z,23.15
2019-02-14T22:02:50.349Z,24.95
2019-02-14T22:08:20.797Z,26.65
2019-02-14T22:11:02.262Z,30.85
2019-02-14T22:24:42.955Z,24.70
2019-02-14T22:27:23.515Z,27.02
2019-02-14T22:30:05.907Z,26.60
2019-02-14T22:32:46.851Z,28.12
2019-02-14T22:35:27.943Z,25.55
2019-02-14T22:38:08.334Z,29.00
2019-02-14T22:40:48.962Z,26.20
2019-02-14T22:43:29.620Z,25.88
2019-02-14T22:46:10.523Z,23.12
2019-02-14T22:48:51.027Z,27.82
2019-02-14T22:51:31.655Z,22.93
2019-02-14T22:54:12.630Z,29.10
2019-02-14T22:56:53.172Z,26.75
2019-02-14T22:59:33.970Z,29.27
2019-02-14T23:02:14.879Z,29.82
2019-02-14T23:04:55.559Z,26.60
2019-02-14T23:07:36.567Z,28.65
2019-02-14T23:10:17.065Z,23.90
2019-02-14T23:12:57.579Z,22.50
2019-02-14T23:15:37.990Z,22.65
2019-02-14T23:18:18.570Z,26.17
2019-02-14T23:20:59.322Z,25.48
2019-02-14T23:23:40.263Z,20.62
2019-02-14T23:26:20.938Z,24.20
2019-02-14T23:29:02.167Z,21.87
2019-02-14T23:31:42.730Z,20.68
2019-02-14T23:34:23.197Z,21.57
2019-02-14T23:37:03.972Z,18.80
2019-02-14T23:39:44.655Z,19.48
2019-02-14T23:42:25.180Z,20.48
2019-02-14T23:45:06.122Z,21.33
2019-02-14T23:47:47.343Z,19.70
2019-02-14T23:50:27.819Z,19.52
2019-02-14T23:53:08.547Z,26.55
2019-02-14T23:55:49.155Z,18.23
2019-02-14T23:58:30.536Z,23.30
